CheckWX is a tool to help pilots better visualize weather data.  It is not intended as a substitute for an official pre-flight weather briefing.

08:25:25 UTC

KSNA METAR
John Wayne-Orange County Airport
Santa Ana, California, USA
Current

32 mins ago

KSNA 150753Z AUTO 00000KT 10SM CLR 16/12 A3012 RMK AO2 SLP197 T01610117 402220150
Observed
Nov-15 @ 07:53 UTC
Visibility
10 SM
Flight Rules
VFR
Cloud Levels
  • Clear skies
Temperature
16°C / 61°F
Dewpoint
12°C / 54°F
Humidity
77%
Altimeter
30.12" Hg
Pressure
1020.02 hPa
Previous

2 hours ago

KSNA 150653Z 00000KT 10SM BKN120 BKN200 17/12 A3012 RMK AO2 SLP199 LAST T01670122
Observed
Nov-15 @ 06:53 UTC
Visibility
10 SM
Flight Rules
VFR
Cloud Levels
  • Broken at 12,000' AGL
  • Broken at 20,000' AGL
Temperature
17°C / 63°F
Dewpoint
12°C / 54°F
Humidity
73%
Altimeter
30.12" Hg
Pressure
1020.02 hPa
Previous

3 hours ago

KSNA 150553Z 07004KT 10SM SCT120 BKN200 18/12 A3012 RMK AO2 SLP199 T01780122 10200 20172 50004
Observed
Nov-15 @ 05:53 UTC
Wind
  • 070° at 4 KTS
Visibility
10 SM
Flight Rules
VFR
Cloud Levels
  • Scattered at 12,000' AGL
  • Broken at 20,000' AGL
Temperature
18°C / 64°F
Dewpoint
12°C / 54°F
Humidity
68%
Altimeter
30.12" Hg
Pressure
1020.02 hPa